createdAt,value
2022-08-25T00:00:34.345Z,98187.31
2022-08-25T00:05:36.444Z,98177.66
2022-08-25T00:10:39.943Z,98184.91
2022-08-25T00:15:41.818Z,98180.00
2022-08-25T00:20:48.845Z,98178.97
2022-08-25T00:25:51.500Z,98190.16
2022-08-25T00:30:53.345Z,98180.66
2022-08-25T00:35:56.478Z,98175.81
2022-08-25T00:41:07.150Z,98177.19
2022-08-25T00:46:10.208Z,98178.75
2022-08-25T00:51:16.897Z,98160.63
2022-08-25T00:56:19.401Z,98169.03
2022-08-25T01:01:23.902Z,98171.22
2022-08-25T01:06:27.409Z,98164.31
2022-08-25T01:11:29.224Z,98162.88
2022-08-25T01:16:31.215Z,98157.03
2022-08-25T01:21:46.754Z,98153.63
2022-08-25T01:26:48.578Z,98146.94
2022-08-25T01:31:54.826Z,98143.53
2022-08-25T01:36:58.286Z,98146.25
2022-08-25T01:42:03.142Z,98147.81
2022-08-25T01:47:06.171Z,98143.16
2022-08-25T01:52:13.324Z,98144.06
2022-08-25T01:57:15.185Z,98141.38
2022-08-25T02:02:18.435Z,98136.34
2022-08-25T02:07:20.704Z,98135.28
2022-08-25T02:12:22.519Z,98139.25
2022-08-25T02:17:24.602Z,98138.63
2022-08-25T02:22:27.062Z,98142.44
2022-08-25T02:27:29.539Z,98142.97
2022-08-25T02:32:31.574Z,98148.56
2022-08-25T02:37:33.441Z,98136.88
2022-08-25T02:42:35.308Z,98135.44
2022-08-25T02:47:37.334Z,98129.59
2022-08-25T02:52:41.176Z,98137.00
2022-08-25T02:57:43.296Z,98129.75
2022-08-25T03:02:45.194Z,98128.34
2022-08-25T03:07:47.060Z,98128.16
2022-08-25T03:12:49.313Z,98123.94
2022-08-25T03:17:51.678Z,98120.88
2022-08-25T03:22:53.643Z,98128.91
2022-08-25T03:27:55.595Z,98113.78
2022-08-25T03:32:57.514Z,98120.16
2022-08-25T03:38:00.578Z,98114.56
2022-08-25T03:43:03.092Z,98109.72
2022-08-25T03:48:05.094Z,98113.88
2022-08-25T03:53:07.669Z,98113.97
2022-08-25T03:58:12.765Z,98113.00
2022-08-25T04:03:14.694Z,98116.56
2022-08-25T04:08:16.648Z,98111.75
2022-08-25T04:13:21.532Z,98107.13
2022-08-25T04:18:23.371Z,98110.38
2022-08-25T04:23:25.193Z,98110.38
2022-08-25T04:28:27.352Z,98107.47
2022-08-25T04:33:29.276Z,98113.09
2022-08-25T04:38:32.384Z,98119.81
2022-08-25T04:43:36.647Z,98111.44
2022-08-25T04:48:42.319Z,98116.91
2022-08-25T04:53:44.307Z,98121.22
2022-08-25T04:58:47.227Z,98123.31
2022-08-25T05:03:55.543Z,98111.00
2022-08-25T05:08:58.806Z,98121.78
2022-08-25T05:14:02.157Z,98106.81
2022-08-25T05:19:04.885Z,98108.97
2022-08-25T05:24:08.161Z,98110.50
2022-08-25T05:29:11.060Z,98108.00
2022-08-25T05:34:12.937Z,98101.44
2022-08-25T05:39:14.921Z,98099.78
2022-08-25T05:44:20.820Z,98109.72
2022-08-25T05:49:23.319Z,98105.94
2022-08-25T05:54:25.472Z,98103.53
2022-08-25T05:59:27.403Z,98110.00
2022-08-25T06:04:29.273Z,98109.78
2022-08-25T06:09:31.173Z,98115.75
2022-08-25T06:14:33.739Z,98121.97
2022-08-25T06:19:35.743Z,98116.63
2022-08-25T06:24:41.638Z,98107.06
2022-08-25T06:29:43.567Z,98112.00
2022-08-25T06:34:45.444Z,98111.44
2022-08-25T06:39:47.346Z,98097.13
2022-08-25T06:44:49.251Z,98094.03
2022-08-25T06:49:51.105Z,98099.59
2022-08-25T06:54:53.367Z,98088.56
2022-08-25T06:59:55.287Z,98095.19
2022-08-25T07:04:58.814Z,98093.75
2022-08-25T07:10:00.641Z,98096.59
2022-08-25T07:15:20.419Z,98098.34
2022-08-25T07:25:24.524Z,98097.78
2022-08-25T07:30:26.564Z,98106.38
2022-08-25T07:35:37.641Z,98107.94
2022-08-25T07:40:43.024Z,98104.72
2022-08-25T07:45:48.992Z,98098.41
2022-08-25T07:50:51.441Z,98095.72
2022-08-25T07:55:53.757Z,98101.50
2022-08-25T08:00:55.722Z,98100.47
2022-08-25T08:05:58.172Z,98097.63
2022-08-25T08:11:05.157Z,98096.91
2022-08-25T08:16:11.959Z,98094.69
2022-08-25T08:21:20.128Z,98087.31
2022-08-25T08:26:31.742Z,98082.88
2022-08-25T08:31:38.686Z,98090.50
2022-08-25T08:36:40.866Z,98086.78
2022-08-25T08:42:19.843Z,98081.53
2022-08-25T08:47:46.739Z,98071.66
2022-08-25T08:53:08.153Z,98066.44
2022-08-25T08:58:19.799Z,98063.41
2022-08-25T09:03:55.130Z,98062.63
2022-08-25T09:09:02.107Z,98063.56
2022-08-25T09:14:30.493Z,98054.94
2022-08-25T09:19:41.934Z,98050.81
2022-08-25T09:25:09.114Z,98060.75
2022-08-25T09:30:17.284Z,98041.25
2022-08-25T09:35:29.254Z,98041.31
2022-08-25T09:40:34.852Z,98043.91
2022-08-25T09:45:49.824Z,98046.50
2022-08-25T09:51:01.166Z,98031.94
2022-08-25T09:56:06.878Z,98020.00
2022-08-25T10:01:20.887Z,98006.38
2022-08-25T10:06:25.797Z,98012.81
2022-08-25T10:11:44.544Z,98013.75
2022-08-25T10:16:48.983Z,97993.59
2022-08-25T10:22:11.117Z,97989.13
2022-08-25T10:27:35.863Z,97989.25
2022-08-25T10:33:06.913Z,97983.66
2022-08-25T10:38:33.435Z,97978.78
2022-08-25T10:43:48.574Z,97968.78
2022-08-25T10:49:12.783Z,97972.69
2022-08-25T10:54:25.393Z,97958.50
2022-08-25T10:59:58.455Z,97953.03
2022-08-25T11:05:28.895Z,97942.13
2022-08-25T11:10:48.010Z,97950.13
2022-08-25T11:16:19.619Z,97948.06
2022-08-25T11:21:42.230Z,97934.44
2022-08-25T11:26:51.821Z,97926.00
2022-08-25T11:31:54.677Z,97919.88
2022-08-25T11:37:01.322Z,97918.91
2022-08-25T11:42:43.296Z,97923.78
2022-08-25T11:47:52.236Z,97916.56
2022-08-25T11:52:57.816Z,97911.69
2022-08-25T11:58:14.995Z,97901.16
2022-08-25T12:03:37.066Z,97903.44
2022-08-25T12:09:00.754Z,97903.63
2022-08-25T12:14:28.857Z,97896.09
2022-08-25T12:19:53.391Z,97900.66
2022-08-25T12:25:17.550Z,97896.88
2022-08-25T12:30:30.735Z,97904.38
2022-08-25T12:35:56.235Z,97902.31
2022-08-25T12:41:04.796Z,97887.16
2022-08-25T12:46:29.849Z,97885.50
2022-08-25T12:51:48.831Z,97882.75
2022-08-25T12:56:59.302Z,97878.66
2022-08-25T13:02:13.573Z,97866.72
2022-08-25T13:07:29.033Z,97871.91
2022-08-25T13:12:46.788Z,97872.50
2022-08-25T13:17:48.698Z,97864.47
2022-08-25T13:23:06.521Z,97851.38
2022-08-25T13:28:40.713Z,97840.75
2022-08-25T13:33:59.096Z,97823.91
2022-08-25T13:39:12.500Z,97827.28
2022-08-25T13:44:16.128Z,97815.66
2022-08-25T13:49:27.053Z,97817.75
2022-08-25T13:54:41.957Z,97805.81
2022-08-25T13:59:49.203Z,97809.00
2022-08-25T14:04:52.835Z,97813.91
2022-08-25T14:09:58.798Z,97807.44
2022-08-25T14:15:02.136Z,97799.31
2022-08-25T14:20:06.040Z,97792.72
2022-08-25T14:25:08.767Z,97780.28
2022-08-25T14:30:13.008Z,97774.84
2022-08-25T14:35:17.440Z,97779.31
2022-08-25T14:40:20.076Z,97762.28
2022-08-25T14:45:22.036Z,97767.69
2022-08-25T14:50:24.837Z,97767.50
2022-08-25T14:55:31.532Z,97774.19
2022-08-25T15:00:37.425Z,97767.34
2022-08-25T15:05:40.685Z,97753.41
2022-08-25T15:10:43.448Z,97755.19
2022-08-25T15:15:52.743Z,97755.38
2022-08-25T15:20:55.036Z,97746.22
2022-08-25T15:25:57.616Z,97743.25
2022-08-25T15:31:00.058Z,97736.03
2022-08-25T15:36:02.829Z,97735.00
2022-08-25T15:41:06.163Z,97737.72
2022-08-25T15:46:14.354Z,97722.00
2022-08-25T15:51:19.022Z,97727.75
2022-08-25T15:56:26.510Z,97716.94
2022-08-25T16:01:30.688Z,97707.91
2022-08-25T16:06:34.010Z,97708.91
2022-08-25T16:11:35.884Z,97712.63
2022-08-25T16:16:41.795Z,97712.69
2022-08-25T16:21:47.454Z,97716.28
2022-08-25T16:26:51.797Z,97710.34
2022-08-25T16:31:55.220Z,97706.84
2022-08-25T16:36:59.218Z,97699.88
2022-08-25T16:42:03.544Z,97702.81
2022-08-25T16:47:08.983Z,97700.53
2022-08-25T16:52:30.333Z,97702.63
2022-08-25T16:57:32.823Z,97701.91
2022-08-25T17:02:34.866Z,97709.84
2022-08-25T17:07:36.940Z,97706.88
2022-08-25T17:12:39.678Z,97701.44
2022-08-25T17:17:42.405Z,97706.09
2022-08-25T17:22:44.260Z,97709.38
2022-08-25T17:27:46.110Z,97704.94
2022-08-25T17:32:51.093Z,97709.25
2022-08-25T17:37:54.432Z,97712.50
2022-08-25T17:42:56.766Z,97713.31
2022-08-25T17:47:59.260Z,97716.78
2022-08-25T17:53:01.254Z,97709.88
2022-08-25T17:58:03.248Z,97713.06
2022-08-25T18:03:06.401Z,97729.22
2022-08-25T18:08:10.516Z,97734.50
2022-08-25T18:13:13.389Z,97733.34
2022-08-25T18:18:15.975Z,97740.63
2022-08-25T18:23:19.681Z,97742.91
2022-08-25T18:28:21.623Z,97744.63
2022-08-25T18:33:23.665Z,97749.19
2022-08-25T18:38:44.035Z,97746.13
2022-08-25T18:43:47.361Z,97744.41
2022-08-25T18:48:52.568Z,97742.50
2022-08-25T18:53:59.155Z,97755.94
2022-08-25T18:59:03.323Z,97759.00
2022-08-25T19:04:05.227Z,97754.91
2022-08-25T19:09:07.120Z,97760.88
2022-08-25T19:14:12.456Z,97760.41
2022-08-25T19:19:14.672Z,97756.56
2022-08-25T19:24:16.756Z,97752.44
2022-08-25T19:29:18.900Z,97751.19
2022-08-25T19:34:28.265Z,97750.78
2022-08-25T19:39:34.387Z,97748.28
2022-08-25T19:44:36.371Z,97745.84
2022-08-25T19:49:38.479Z,97748.81
2022-08-25T19:54:46.363Z,97747.03
2022-08-25T19:59:48.344Z,97747.38
2022-08-25T20:04:53.400Z,97755.53
2022-08-25T20:09:56.331Z,97760.19
2022-08-25T20:15:00.117Z,97759.81
2022-08-25T20:20:05.933Z,97764.75
2022-08-25T20:25:13.469Z,97762.19
2022-08-25T20:30:27.596Z,97761.47
2022-08-25T20:35:29.509Z,97765.00
2022-08-25T20:40:31.480Z,97764.84
2022-08-25T20:45:33.671Z,97758.69
2022-08-25T20:50:38.827Z,97762.22
2022-08-25T20:55:42.646Z,97758.63
2022-08-25T21:00:46.389Z,97764.84
2022-08-25T21:05:48.227Z,97758.59
2022-08-25T21:10:55.431Z,97751.53
2022-08-25T21:15:57.522Z,97746.41
2022-08-25T21:21:11.352Z,97751.81
2022-08-25T21:26:24.724Z,97747.69
2022-08-25T21:31:29.466Z,97744.16
2022-08-25T21:36:32.342Z,97741.34
2022-08-25T21:41:36.875Z,97732.63
2022-08-25T21:46:39.066Z,97733.47
2022-08-25T21:51:44.635Z,97734.00
2022-08-25T21:56:59.493Z,97734.59
2022-08-25T22:02:04.814Z,97724.41
2022-08-25T22:07:08.955Z,97727.41
2022-08-25T22:12:10.777Z,97725.34
2022-08-25T22:17:16.917Z,97716.84
2022-08-25T22:22:20.956Z,97725.47
2022-08-25T22:27:23.687Z,97726.84
2022-08-25T22:32:25.597Z,97723.16
2022-08-25T22:37:27.769Z,97724.66
2022-08-25T22:42:32.230Z,97724.13
2022-08-25T22:47:33.913Z,97714.94
2022-08-25T22:52:35.629Z,97708.72
2022-08-25T22:57:37.631Z,97712.44
2022-08-25T23:02:42.294Z,97710.47
2022-08-25T23:07:43.924Z,97707.84
2022-08-25T23:12:45.616Z,97704.19
2022-08-25T23:17:47.309Z,97699.47
2022-08-25T23:22:50.179Z,97701.16
2022-08-25T23:27:55.335Z,97690.31
2022-08-25T23:32:57.026Z,97691.75
2022-08-25T23:37:58.705Z,97677.44
2022-08-25T23:43:00.932Z,97676.06
2022-08-25T23:48:05.216Z,97679.25
2022-08-25T23:53:08.096Z,97668.13
2022-08-25T23:58:10.706Z,97669.41
